Terminal Aerodrome Forecast
Issued by NWS

Home | Current Version | Previous Version | Text Only | Print | Product List | Glossary On
Versions: 1 2 3 4 5 6 7 8 9 10 11 12 13 14 15 16 17 18 19 20 21 22 23 24 25 26 27 28 29 30 31 32 33 34
000
FTUS45 KBOU 262328
TAFAPA
TAF
KAPA 262328Z 2700/2724 03005KT P6SM VCSH SCT060 BKN100 OVC140
      TEMPO 2702/2705 VRB15G25KT TSRA BKN050CB
     FM270500 15007KT P6SM FEW050 SCT080 BKN120
     FM270800 VRB04KT P6SM SCT080 BKN120
     FM271000 30006KT P6SM SCT020 SCT080 BKN120
      TEMPO 2710/2714 BKN020
     FM271600 34009KT P6SM FEW040 SCT100 BKN140
     FM272000 36009KT P6SM SCT050 BKN090
      TEMPO 2720/2724 VRB20G30KT 5SM TSRA BKN050CB=

USA.gov is the U.S. government's official web portal to all federal, state and local government web resources and services.